sensor_id;sensor_type;location;lat;lon;timestamp;P1;durP1;ratioP1;P2;durP2;ratioP2
75171;SDS011;63750;52.418;20.742;2023-02-18T00:01:22;8.70;;;5.30;;
75171;SDS011;63750;52.418;20.742;2023-02-18T00:03:51;7.50;;;4.50;;
75171;SDS011;63750;52.418;20.742;2023-02-18T00:06:20;6.90;;;3.90;;
75171;SDS011;63750;52.418;20.742;2023-02-18T00:08:51;7.40;;;3.50;;
75171;SDS011;63750;52.418;20.742;2023-02-18T00:11:20;5.90;;;3.80;;
75171;SDS011;63750;52.418;20.742;2023-02-18T00:13:50;4.90;;;3.60;;
75171;SDS011;63750;52.418;20.742;2023-02-18T00:16:20;7.90;;;3.80;;
75171;SDS011;63750;52.418;20.742;2023-02-18T00:18:50;7.70;;;4.10;;
75171;SDS011;63750;52.418;20.742;2023-02-18T00:21:23;7.20;;;3.70;;
75171;SDS011;63750;52.418;20.742;2023-02-18T00:23:52;7.70;;;3.60;;
75171;SDS011;63750;52.418;20.742;2023-02-18T00:26:21;9.80;;;3.70;;
75171;SDS011;63750;52.418;20.742;2023-02-18T00:28:50;5.40;;;3.50;;
75171;SDS011;63750;52.418;20.742;2023-02-18T00:31:21;8.80;;;3.70;;
75171;SDS011;63750;52.418;20.742;2023-02-18T00:33:53;7.20;;;3.40;;
75171;SDS011;63750;52.418;20.742;2023-02-18T00:36:22;8.10;;;3.70;;
75171;SDS011;63750;52.418;20.742;2023-02-18T00:38:53;6.70;;;3.30;;
75171;SDS011;63750;52.418;20.742;2023-02-18T00:41:24;9.20;;;3.50;;
75171;SDS011;63750;52.418;20.742;2023-02-18T00:43:54;7.70;;;4.20;;
75171;SDS011;63750;52.418;20.742;2023-02-18T00:46:23;8.30;;;4.00;;
75171;SDS011;63750;52.418;20.742;2023-02-18T00:48:53;8.60;;;3.70;;
75171;SDS011;63750;52.418;20.742;2023-02-18T00:51:22;6.40;;;3.20;;
75171;SDS011;63750;52.418;20.742;2023-02-18T00:53:52;6.80;;;3.60;;
75171;SDS011;63750;52.418;20.742;2023-02-18T00:56:21;9.00;;;3.70;;
75171;SDS011;63750;52.418;20.742;2023-02-18T00:58:50;6.20;;;3.60;;
75171;SDS011;63750;52.418;20.742;2023-02-18T01:01:19;10.60;;;3.70;;
75171;SDS011;63750;52.418;20.742;2023-02-18T01:03:48;8.50;;;3.80;;
75171;SDS011;63750;52.418;20.742;2023-02-18T01:06:17;9.60;;;3.80;;
75171;SDS011;63750;52.418;20.742;2023-02-18T01:08:46;7.40;;;3.80;;
75171;SDS011;63750;52.418;20.742;2023-02-18T01:11:15;7.70;;;3.50;;
75171;SDS011;63750;52.418;20.742;2023-02-18T01:13:44;9.20;;;4.10;;
75171;SDS011;63750;52.418;20.742;2023-02-18T01:16:13;10.40;;;4.30;;
75171;SDS011;63750;52.418;20.742;2023-02-18T01:18:42;8.00;;;3.70;;
75171;SDS011;63750;52.418;20.742;2023-02-18T01:21:11;15.70;;;4.10;;
75171;SDS011;63750;52.418;20.742;2023-02-18T01:23:41;8.30;;;3.70;;
75171;SDS011;63750;52.418;20.742;2023-02-18T01:26:10;8.10;;;3.90;;
75171;SDS011;63750;52.418;20.742;2023-02-18T01:28:39;7.70;;;4.00;;
75171;SDS011;63750;52.418;20.742;2023-02-18T01:31:09;11.20;;;3.60;;
75171;SDS011;63750;52.418;20.742;2023-02-18T01:33:39;6.80;;;3.50;;
75171;SDS011;63750;52.418;20.742;2023-02-18T01:36:09;9.20;;;3.60;;
75171;SDS011;63750;52.418;20.742;2023-02-18T01:38:38;8.50;;;4.10;;
75171;SDS011;63750;52.418;20.742;2023-02-18T01:41:07;8.50;;;3.80;;
75171;SDS011;63750;52.418;20.742;2023-02-18T01:43:36;10.00;;;3.90;;
75171;SDS011;63750;52.418;20.742;2023-02-18T01:46:07;7.70;;;3.80;;
75171;SDS011;63750;52.418;20.742;2023-02-18T01:48:43;9.70;;;3.90;;
75171;SDS011;63750;52.418;20.742;2023-02-18T01:51:16;7.20;;;3.60;;
75171;SDS011;63750;52.418;20.742;2023-02-18T01:53:53;10.00;;;3.80;;
75171;SDS011;63750;52.418;20.742;2023-02-18T01:56:27;10.60;;;4.20;;
75171;SDS011;63750;52.418;20.742;2023-02-18T01:59:00;10.70;;;3.60;;
75171;SDS011;63750;52.418;20.742;2023-02-18T02:01:33;6.80;;;3.80;;
75171;SDS011;63750;52.418;20.742;2023-02-18T02:04:02;5.90;;;3.80;;
75171;SDS011;63750;52.418;20.742;2023-02-18T02:06:31;7.60;;;3.40;;
75171;SDS011;63750;52.418;20.742;2023-02-18T02:09:01;7.00;;;3.50;;
75171;SDS011;63750;52.418;20.742;2023-02-18T02:11:39;6.70;;;3.40;;
75171;SDS011;63750;52.418;20.742;2023-02-18T02:14:18;8.90;;;3.70;;
75171;SDS011;63750;52.418;20.742;2023-02-18T02:17:01;10.40;;;4.00;;
75171;SDS011;63750;52.418;20.742;2023-02-18T02:19:44;8.50;;;3.40;;
75171;SDS011;63750;52.418;20.742;2023-02-18T02:22:58;8.00;;;3.90;;
75171;SDS011;63750;52.418;20.742;2023-02-18T02:25:59;10.80;;;3.60;;
75171;SDS011;63750;52.418;20.742;2023-02-18T02:28:49;8.90;;;3.40;;
75171;SDS011;63750;52.418;20.742;2023-02-18T02:31:40;15.80;;;3.80;;
75171;SDS011;63750;52.418;20.742;2023-02-18T02:34:48;8.80;;;3.50;;
75171;SDS011;63750;52.418;20.742;2023-02-18T02:37:23;7.20;;;3.80;;
75171;SDS011;63750;52.418;20.742;2023-02-18T02:40:03;10.50;;;4.10;;
75171;SDS011;63750;52.418;20.742;2023-02-18T02:42:45;9.20;;;3.60;;
75171;SDS011;63750;52.418;20.742;2023-02-18T02:45:22;11.40;;;4.30;;
75171;SDS011;63750;52.418;20.742;2023-02-18T02:48:02;13.60;;;3.70;;
75171;SDS011;63750;52.418;20.742;2023-02-18T02:50:36;9.40;;;3.90;;
75171;SDS011;63750;52.418;20.742;2023-02-18T02:53:12;9.10;;;4.00;;
75171;SDS011;63750;52.418;20.742;2023-02-18T02:55:45;9.80;;;3.60;;
75171;SDS011;63750;52.418;20.742;2023-02-18T02:58:15;8.30;;;3.80;;
75171;SDS011;63750;52.418;20.742;2023-02-18T03:00:49;9.10;;;3.70;;
75171;SDS011;63750;52.418;20.742;2023-02-18T03:03:45;7.70;;;3.60;;
75171;SDS011;63750;52.418;20.742;2023-02-18T03:06:36;8.40;;;3.80;;
75171;SDS011;63750;52.418;20.742;2023-02-18T03:09:29;6.50;;;3.90;;
75171;SDS011;63750;52.418;20.742;2023-02-18T03:12:07;8.80;;;4.00;;
75171;SDS011;63750;52.418;20.742;2023-02-18T03:14:43;9.60;;;3.80;;
75171;SDS011;63750;52.418;20.742;2023-02-18T03:17:21;8.20;;;3.90;;
75171;SDS011;63750;52.418;20.742;2023-02-18T03:19:54;8.40;;;3.50;;
75171;SDS011;63750;52.418;20.742;2023-02-18T03:22:26;9.60;;;4.30;;
75171;SDS011;63750;52.418;20.742;2023-02-18T03:24:59;13.70;;;3.90;;
75171;SDS011;63750;52.418;20.742;2023-02-18T03:27:29;8.10;;;3.80;;
75171;SDS011;63750;52.418;20.742;2023-02-18T03:30:02;11.30;;;4.20;;
75171;SDS011;63750;52.418;20.742;2023-02-18T03:32:33;9.20;;;3.80;;
75171;SDS011;63750;52.418;20.742;2023-02-18T03:35:04;9.70;;;3.70;;
75171;SDS011;63750;52.418;20.742;2023-02-18T03:37:38;11.40;;;4.00;;
75171;SDS011;63750;52.418;20.742;2023-02-18T03:40:10;10.60;;;3.70;;
75171;SDS011;63750;52.418;20.742;2023-02-18T03:42:39;8.40;;;3.70;;
75171;SDS011;63750;52.418;20.742;2023-02-18T03:45:08;9.60;;;4.10;;
75171;SDS011;63750;52.418;20.742;2023-02-18T03:47:38;10.10;;;3.90;;
75171;SDS011;63750;52.418;20.742;2023-02-18T03:50:07;9.20;;;4.20;;
75171;SDS011;63750;52.418;20.742;2023-02-18T03:52:36;7.30;;;3.80;;
75171;SDS011;63750;52.418;20.742;2023-02-18T03:55:06;11.10;;;4.10;;
75171;SDS011;63750;52.418;20.742;2023-02-18T03:57:35;6.70;;;3.90;;
75171;SDS011;63750;52.418;20.742;2023-02-18T04:00:04;7.60;;;4.00;;
75171;SDS011;63750;52.418;20.742;2023-02-18T04:02:34;10.10;;;4.00;;
75171;SDS011;63750;52.418;20.742;2023-02-18T04:05:03;9.60;;;3.70;;
75171;SDS011;63750;52.418;20.742;2023-02-18T04:07:33;10.60;;;4.10;;
75171;SDS011;63750;52.418;20.742;2023-02-18T04:10:02;8.40;;;4.40;;
75171;SDS011;63750;52.418;20.742;2023-02-18T04:12:31;9.10;;;3.50;;
75171;SDS011;63750;52.418;20.742;2023-02-18T04:15:00;8.40;;;3.90;;
75171;SDS011;63750;52.418;20.742;2023-02-18T04:17:29;10.20;;;3.70;;
75171;SDS011;63750;52.418;20.742;2023-02-18T04:19:59;11.30;;;4.00;;
75171;SDS011;63750;52.418;20.742;2023-02-18T04:22:28;8.90;;;4.00;;
75171;SDS011;63750;52.418;20.742;2023-02-18T04:24:57;12.70;;;4.10;;
75171;SDS011;63750;52.418;20.742;2023-02-18T04:27:26;11.40;;;4.10;;
75171;SDS011;63750;52.418;20.742;2023-02-18T04:29:55;8.80;;;3.90;;
75171;SDS011;63750;52.418;20.742;2023-02-18T04:32:23;10.40;;;3.60;;
75171;SDS011;63750;52.418;20.742;2023-02-18T04:34:53;12.80;;;4.00;;
75171;SDS011;63750;52.418;20.742;2023-02-18T04:37:22;11.30;;;3.70;;
75171;SDS011;63750;52.418;20.742;2023-02-18T04:39:50;7.90;;;3.90;;
75171;SDS011;63750;52.418;20.742;2023-02-18T04:42:19;9.20;;;3.80;;
75171;SDS011;63750;52.418;20.742;2023-02-18T04:44:48;7.90;;;3.90;;
75171;SDS011;63750;52.418;20.742;2023-02-18T04:47:17;10.80;;;4.10;;
75171;SDS011;63750;52.418;20.742;2023-02-18T04:49:46;9.90;;;3.80;;
75171;SDS011;63750;52.418;20.742;2023-02-18T04:52:15;13.80;;;4.20;;
75171;SDS011;63750;52.418;20.742;2023-02-18T04:54:44;8.10;;;3.60;;
75171;SDS011;63750;52.418;20.742;2023-02-18T04:57:13;6.70;;;3.40;;
75171;SDS011;63750;52.418;20.742;2023-02-18T04:59:42;12.60;;;4.60;;
75171;SDS011;63750;52.418;20.742;2023-02-18T05:02:11;9.50;;;3.60;;
75171;SDS011;63750;52.418;20.742;2023-02-18T05:04:40;8.20;;;4.70;;
75171;SDS011;63750;52.418;20.742;2023-02-18T05:07:09;11.40;;;4.10;;
75171;SDS011;63750;52.418;20.742;2023-02-18T05:09:37;11.40;;;3.90;;
75171;SDS011;63750;52.418;20.742;2023-02-18T05:12:07;8.30;;;3.50;;
75171;SDS011;63750;52.418;20.742;2023-02-18T05:14:35;9.20;;;3.70;;
75171;SDS011;63750;52.418;20.742;2023-02-18T05:17:04;11.90;;;5.00;;
75171;SDS011;63750;52.418;20.742;2023-02-18T05:19:33;10.90;;;5.30;;
75171;SDS011;63750;52.418;20.742;2023-02-18T05:22:02;10.80;;;5.00;;
75171;SDS011;63750;52.418;20.742;2023-02-18T05:24:31;10.90;;;4.00;;
75171;SDS011;63750;52.418;20.742;2023-02-18T05:27:00;9.60;;;4.30;;
75171;SDS011;63750;52.418;20.742;2023-02-18T05:29:29;7.10;;;3.90;;
75171;SDS011;63750;52.418;20.742;2023-02-18T05:31:57;8.90;;;3.90;;
75171;SDS011;63750;52.418;20.742;2023-02-18T05:34:26;7.60;;;3.60;;
75171;SDS011;63750;52.418;20.742;2023-02-18T05:36:55;12.00;;;4.50;;
75171;SDS011;63750;52.418;20.742;2023-02-18T05:39:24;11.30;;;3.70;;
75171;SDS011;63750;52.418;20.742;2023-02-18T05:41:53;8.60;;;3.90;;
75171;SDS011;63750;52.418;20.742;2023-02-18T05:44:22;9.00;;;3.90;;
75171;SDS011;63750;52.418;20.742;2023-02-18T05:46:50;10.40;;;4.10;;
75171;SDS011;63750;52.418;20.742;2023-02-18T05:49:19;9.40;;;4.00;;
75171;SDS011;63750;52.418;20.742;2023-02-18T05:51:48;9.40;;;4.20;;
75171;SDS011;63750;52.418;20.742;2023-02-18T05:54:17;10.40;;;4.10;;
75171;SDS011;63750;52.418;20.742;2023-02-18T05:56:46;10.50;;;3.80;;
75171;SDS011;63750;52.418;20.742;2023-02-18T05:59:14;10.50;;;3.90;;
75171;SDS011;63750;52.418;20.742;2023-02-18T06:01:43;11.30;;;4.00;;
75171;SDS011;63750;52.418;20.742;2023-02-18T06:04:13;14.20;;;4.30;;
75171;SDS011;63750;52.418;20.742;2023-02-18T06:06:42;8.90;;;4.10;;
75171;SDS011;63750;52.418;20.742;2023-02-18T06:09:11;7.50;;;3.90;;
75171;SDS011;63750;52.418;20.742;2023-02-18T06:11:40;10.80;;;4.70;;
75171;SDS011;63750;52.418;20.742;2023-02-18T06:14:09;11.40;;;4.50;;
75171;SDS011;63750;52.418;20.742;2023-02-18T06:16:38;11.10;;;3.80;;
75171;SDS011;63750;52.418;20.742;2023-02-18T06:19:07;7.90;;;3.90;;
75171;SDS011;63750;52.418;20.742;2023-02-18T06:21:35;12.30;;;4.40;;
75171;SDS011;63750;52.418;20.742;2023-02-18T06:24:05;10.10;;;4.30;;
75171;SDS011;63750;52.418;20.742;2023-02-18T06:26:34;8.30;;;3.90;;
75171;SDS011;63750;52.418;20.742;2023-02-18T06:29:02;9.00;;;3.80;;
75171;SDS011;63750;52.418;20.742;2023-02-18T06:31:31;13.80;;;4.30;;
75171;SDS011;63750;52.418;20.742;2023-02-18T06:34:00;10.70;;;4.00;;
75171;SDS011;63750;52.418;20.742;2023-02-18T06:36:29;7.90;;;3.70;;
75171;SDS011;63750;52.418;20.742;2023-02-18T06:38:58;12.50;;;4.40;;
75171;SDS011;63750;52.418;20.742;2023-02-18T06:41:30;9.10;;;4.20;;
75171;SDS011;63750;52.418;20.742;2023-02-18T06:43:59;7.80;;;3.90;;
75171;SDS011;63750;52.418;20.742;2023-02-18T06:46:28;8.60;;;4.00;;
75171;SDS011;63750;52.418;20.742;2023-02-18T06:48:57;10.30;;;4.70;;
75171;SDS011;63750;52.418;20.742;2023-02-18T06:51:26;9.60;;;4.30;;
75171;SDS011;63750;52.418;20.742;2023-02-18T06:53:54;8.70;;;4.50;;
75171;SDS011;63750;52.418;20.742;2023-02-18T06:56:23;9.40;;;4.50;;
75171;SDS011;63750;52.418;20.742;2023-02-18T06:58:52;8.40;;;4.00;;
75171;SDS011;63750;52.418;20.742;2023-02-18T07:01:21;8.90;;;4.60;;
75171;SDS011;63750;52.418;20.742;2023-02-18T07:03:50;9.70;;;3.90;;
75171;SDS011;63750;52.418;20.742;2023-02-18T07:06:18;6.60;;;3.80;;
75171;SDS011;63750;52.418;20.742;2023-02-18T07:08:47;9.30;;;4.20;;
75171;SDS011;63750;52.418;20.742;2023-02-18T07:11:16;8.40;;;3.60;;
75171;SDS011;63750;52.418;20.742;2023-02-18T07:13:45;9.60;;;4.00;;
75171;SDS011;63750;52.418;20.742;2023-02-18T07:16:14;9.60;;;4.40;;
75171;SDS011;63750;52.418;20.742;2023-02-18T07:18:43;9.10;;;4.20;;
75171;SDS011;63750;52.418;20.742;2023-02-18T07:21:11;13.20;;;3.80;;
75171;SDS011;63750;52.418;20.742;2023-02-18T07:23:40;10.70;;;4.10;;
75171;SDS011;63750;52.418;20.742;2023-02-18T07:26:09;9.20;;;4.20;;
75171;SDS011;63750;52.418;20.742;2023-02-18T07:28:40;9.10;;;3.50;;
75171;SDS011;63750;52.418;20.742;2023-02-18T07:31:09;9.40;;;3.90;;
75171;SDS011;63750;52.418;20.742;2023-02-18T07:33:37;10.80;;;4.50;;
75171;SDS011;63750;52.418;20.742;2023-02-18T07:36:07;10.00;;;4.50;;
75171;SDS011;63750;52.418;20.742;2023-02-18T07:38:37;13.10;;;4.70;;
75171;SDS011;63750;52.418;20.742;2023-02-18T07:41:05;9.40;;;4.00;;
75171;SDS011;63750;52.418;20.742;2023-02-18T07:43:39;9.40;;;4.40;;
75171;SDS011;63750;52.418;20.742;2023-02-18T07:46:08;10.30;;;3.90;;
75171;SDS011;63750;52.418;20.742;2023-02-18T07:48:37;14.50;;;4.60;;
75171;SDS011;63750;52.418;20.742;2023-02-18T07:51:06;11.80;;;4.60;;
75171;SDS011;63750;52.418;20.742;2023-02-18T07:53:36;11.40;;;3.70;;
75171;SDS011;63750;52.418;20.742;2023-02-18T07:56:05;10.60;;;3.80;;
75171;SDS011;63750;52.418;20.742;2023-02-18T07:58:35;9.00;;;4.30;;
75171;SDS011;63750;52.418;20.742;2023-02-18T08:01:05;12.20;;;4.00;;
75171;SDS011;63750;52.418;20.742;2023-02-18T08:03:35;10.80;;;4.50;;
75171;SDS011;63750;52.418;20.742;2023-02-18T08:06:04;10.20;;;3.90;;
75171;SDS011;63750;52.418;20.742;2023-02-18T08:08:34;8.20;;;4.00;;
75171;SDS011;63750;52.418;20.742;2023-02-18T08:11:08;10.80;;;4.00;;
75171;SDS011;63750;52.418;20.742;2023-02-18T08:13:37;9.90;;;4.70;;
75171;SDS011;63750;52.418;20.742;2023-02-18T08:16:06;8.00;;;4.20;;
75171;SDS011;63750;52.418;20.742;2023-02-18T08:18:35;10.30;;;4.10;;
75171;SDS011;63750;52.418;20.742;2023-02-18T08:21:04;9.40;;;4.30;;
75171;SDS011;63750;52.418;20.742;2023-02-18T08:23:33;12.10;;;4.80;;
75171;SDS011;63750;52.418;20.742;2023-02-18T08:26:01;9.10;;;4.60;;
75171;SDS011;63750;52.418;20.742;2023-02-18T08:28:31;8.10;;;4.30;;
75171;SDS011;63750;52.418;20.742;2023-02-18T08:31:00;9.70;;;4.30;;
75171;SDS011;63750;52.418;20.742;2023-02-18T08:33:29;10.30;;;4.60;;
75171;SDS011;63750;52.418;20.742;2023-02-18T08:35:58;9.60;;;4.10;;
75171;SDS011;63750;52.418;20.742;2023-02-18T08:38:27;11.10;;;4.30;;
75171;SDS011;63750;52.418;20.742;2023-02-18T08:41:01;12.00;;;4.60;;
75171;SDS011;63750;52.418;20.742;2023-02-18T08:43:32;11.40;;;4.60;;
75171;SDS011;63750;52.418;20.742;2023-02-18T08:46:01;9.30;;;4.30;;
75171;SDS011;63750;52.418;20.742;2023-02-18T08:48:30;12.80;;;4.40;;
75171;SDS011;63750;52.418;20.742;2023-02-18T08:50:59;12.00;;;4.50;;
75171;SDS011;63750;52.418;20.742;2023-02-18T08:53:36;10.20;;;4.30;;
75171;SDS011;63750;52.418;20.742;2023-02-18T08:56:06;10.80;;;4.00;;
75171;SDS011;63750;52.418;20.742;2023-02-18T08:58:36;9.50;;;4.10;;
75171;SDS011;63750;52.418;20.742;2023-02-18T09:01:05;9.30;;;4.60;;
75171;SDS011;63750;52.418;20.742;2023-02-18T09:03:36;9.30;;;4.30;;
75171;SDS011;63750;52.418;20.742;2023-02-18T09:06:06;9.70;;;4.10;;
75171;SDS011;63750;52.418;20.742;2023-02-18T09:08:35;9.00;;;4.30;;
75171;SDS011;63750;52.418;20.742;2023-02-18T09:11:04;10.00;;;4.60;;
75171;SDS011;63750;52.418;20.742;2023-02-18T09:13:33;10.90;;;4.40;;
75171;SDS011;63750;52.418;20.742;2023-02-18T09:16:02;9.30;;;5.10;;
75171;SDS011;63750;52.418;20.742;2023-02-18T09:18:33;9.30;;;3.80;;
75171;SDS011;63750;52.418;20.742;2023-02-18T09:21:02;14.30;;;4.80;;
75171;SDS011;63750;52.418;20.742;2023-02-18T09:23:33;11.40;;;4.90;;
75171;SDS011;63750;52.418;20.742;2023-02-18T09:26:04;11.70;;;4.50;;
75171;SDS011;63750;52.418;20.742;2023-02-18T09:28:35;11.40;;;4.80;;
75171;SDS011;63750;52.418;20.742;2023-02-18T09:31:05;7.90;;;4.20;;
75171;SDS011;63750;52.418;20.742;2023-02-18T09:33:35;9.20;;;5.00;;
75171;SDS011;63750;52.418;20.742;2023-02-18T09:36:06;10.70;;;5.00;;
75171;SDS011;63750;52.418;20.742;2023-02-18T09:38:35;8.30;;;4.70;;
75171;SDS011;63750;52.418;20.742;2023-02-18T09:41:05;10.40;;;5.20;;
75171;SDS011;63750;52.418;20.742;2023-02-18T09:43:41;12.00;;;5.30;;
75171;SDS011;63750;52.418;20.742;2023-02-18T09:46:13;13.70;;;5.40;;
75171;SDS011;63750;52.418;20.742;2023-02-18T09:48:47;13.80;;;5.10;;
75171;SDS011;63750;52.418;20.742;2023-02-18T09:51:17;10.10;;;4.90;;
75171;SDS011;63750;52.418;20.742;2023-02-18T09:53:46;10.00;;;4.20;;
75171;SDS011;63750;52.418;20.742;2023-02-18T09:56:16;12.40;;;4.60;;
75171;SDS011;63750;52.418;20.742;2023-02-18T09:58:48;8.00;;;4.50;;
75171;SDS011;63750;52.418;20.742;2023-02-18T10:01:21;8.80;;;4.10;;
75171;SDS011;63750;52.418;20.742;2023-02-18T10:03:54;11.20;;;4.60;;
75171;SDS011;63750;52.418;20.742;2023-02-18T10:06:31;11.30;;;4.60;;
75171;SDS011;63750;52.418;20.742;2023-02-18T10:09:01;12.50;;;5.10;;
75171;SDS011;63750;52.418;20.742;2023-02-18T10:11:38;13.00;;;5.00;;
75171;SDS011;63750;52.418;20.742;2023-02-18T10:14:10;11.20;;;5.10;;
75171;SDS011;63750;52.418;20.742;2023-02-18T10:16:40;8.10;;;4.50;;
75171;SDS011;63750;52.418;20.742;2023-02-18T10:19:17;9.70;;;5.30;;
75171;SDS011;63750;52.418;20.742;2023-02-18T10:21:50;9.50;;;4.70;;
75171;SDS011;63750;52.418;20.742;2023-02-18T10:24:24;12.80;;;5.10;;
75171;SDS011;63750;52.418;20.742;2023-02-18T10:26:57;11.60;;;5.10;;
75171;SDS011;63750;52.418;20.742;2023-02-18T10:29:26;14.40;;;4.70;;
75171;SDS011;63750;52.418;20.742;2023-02-18T10:31:56;8.50;;;4.90;;
75171;SDS011;63750;52.418;20.742;2023-02-18T10:34:35;9.70;;;4.50;;
75171;SDS011;63750;52.418;20.742;2023-02-18T10:37:08;8.00;;;4.50;;
75171;SDS011;63750;52.418;20.742;2023-02-18T10:39:56;14.40;;;4.90;;
75171;SDS011;63750;52.418;20.742;2023-02-18T10:42:35;11.40;;;4.50;;
75171;SDS011;63750;52.418;20.742;2023-02-18T10:45:14;11.00;;;4.90;;
75171;SDS011;63750;52.418;20.742;2023-02-18T10:47:50;12.80;;;4.80;;
75171;SDS011;63750;52.418;20.742;2023-02-18T10:50:29;13.40;;;5.00;;
75171;SDS011;63750;52.418;20.742;2023-02-18T10:53:03;12.40;;;4.90;;
75171;SDS011;63750;52.418;20.742;2023-02-18T10:55:38;10.80;;;4.20;;
75171;SDS011;63750;52.418;20.742;2023-02-18T11:00:52;10.30;;;5.10;;
75171;SDS011;63750;52.418;20.742;2023-02-18T11:03:22;12.30;;;4.50;;
75171;SDS011;63750;52.418;20.742;2023-02-18T11:05:52;12.80;;;5.20;;
75171;SDS011;63750;52.418;20.742;2023-02-18T11:08:23;10.40;;;5.00;;
75171;SDS011;63750;52.418;20.742;2023-02-18T11:10:54;7.40;;;4.50;;
75171;SDS011;63750;52.418;20.742;2023-02-18T11:13:25;13.30;;;4.90;;
75171;SDS011;63750;52.418;20.742;2023-02-18T11:15:56;10.00;;;5.30;;
75171;SDS011;63750;52.418;20.742;2023-02-18T11:18:28;9.90;;;4.70;;
75171;SDS011;63750;52.418;20.742;2023-02-18T11:21:03;11.30;;;4.60;;
75171;SDS011;63750;52.418;20.742;2023-02-18T11:23:46;10.20;;;4.30;;
75171;SDS011;63750;52.418;20.742;2023-02-18T11:26:18;10.10;;;4.50;;
75171;SDS011;63750;52.418;20.742;2023-02-18T11:28:55;8.20;;;4.50;;
75171;SDS011;63750;52.418;20.742;2023-02-18T11:31:29;9.20;;;4.70;;
75171;SDS011;63750;52.418;20.742;2023-02-18T11:34:05;8.30;;;4.60;;
75171;SDS011;63750;52.418;20.742;2023-02-18T11:36:39;12.20;;;4.60;;
75171;SDS011;63750;52.418;20.742;2023-02-18T11:39:13;10.60;;;4.90;;
75171;SDS011;63750;52.418;20.742;2023-02-18T11:41:47;13.60;;;6.40;;
75171;SDS011;63750;52.418;20.742;2023-02-18T11:44:21;10.40;;;4.90;;
75171;SDS011;63750;52.418;20.742;2023-02-18T11:46:58;10.00;;;4.70;;
75171;SDS011;63750;52.418;20.742;2023-02-18T11:49:29;10.50;;;5.10;;
75171;SDS011;63750;52.418;20.742;2023-02-18T11:52:13;10.30;;;4.90;;
75171;SDS011;63750;52.418;20.742;2023-02-18T11:54:45;12.30;;;4.70;;
75171;SDS011;63750;52.418;20.742;2023-02-18T11:57:27;13.20;;;4.90;;
75171;SDS011;63750;52.418;20.742;2023-02-18T11:59:57;10.20;;;4.40;;
75171;SDS011;63750;52.418;20.742;2023-02-18T12:02:29;10.00;;;4.20;;
75171;SDS011;63750;52.418;20.742;2023-02-18T12:05:03;11.30;;;4.80;;
75171;SDS011;63750;52.418;20.742;2023-02-18T12:07:40;11.00;;;4.60;;
75171;SDS011;63750;52.418;20.742;2023-02-18T12:10:13;9.60;;;4.20;;
75171;SDS011;63750;52.418;20.742;2023-02-18T12:12:45;11.90;;;4.60;;
75171;SDS011;63750;52.418;20.742;2023-02-18T12:15:19;9.40;;;4.80;;
75171;SDS011;63750;52.418;20.742;2023-02-18T12:17:58;12.40;;;5.00;;
75171;SDS011;63750;52.418;20.742;2023-02-18T12:20:51;14.30;;;5.20;;
75171;SDS011;63750;52.418;20.742;2023-02-18T12:23:32;8.20;;;4.30;;
75171;SDS011;63750;52.418;20.742;2023-02-18T12:26:10;12.40;;;5.50;;
75171;SDS011;63750;52.418;20.742;2023-02-18T12:28:57;10.30;;;4.90;;
75171;SDS011;63750;52.418;20.742;2023-02-18T12:31:48;10.00;;;4.80;;
75171;SDS011;63750;52.418;20.742;2023-02-18T12:34:34;12.70;;;4.60;;
75171;SDS011;63750;52.418;20.742;2023-02-18T12:37:13;15.20;;;5.60;;
75171;SDS011;63750;52.418;20.742;2023-02-18T12:39:59;11.10;;;5.20;;
75171;SDS011;63750;52.418;20.742;2023-02-18T12:42:46;10.30;;;5.00;;
75171;SDS011;63750;52.418;20.742;2023-02-18T12:45:33;14.20;;;5.10;;
75171;SDS011;63750;52.418;20.742;2023-02-18T12:48:21;9.50;;;4.80;;
75171;SDS011;63750;52.418;20.742;2023-02-18T12:51:04;10.60;;;4.50;;
75171;SDS011;63750;52.418;20.742;2023-02-18T12:53:46;11.10;;;4.70;;
75171;SDS011;63750;52.418;20.742;2023-02-18T12:56:39;14.00;;;5.00;;
75171;SDS011;63750;52.418;20.742;2023-02-18T12:59:19;9.70;;;5.00;;
75171;SDS011;63750;52.418;20.742;2023-02-18T13:02:05;12.30;;;5.00;;
75171;SDS011;63750;52.418;20.742;2023-02-18T13:04:53;11.20;;;5.20;;
75171;SDS011;63750;52.418;20.742;2023-02-18T13:07:33;10.90;;;4.60;;
75171;SDS011;63750;52.418;20.742;2023-02-18T13:10:24;8.80;;;4.70;;
75171;SDS011;63750;52.418;20.742;2023-02-18T13:13:08;9.50;;;4.50;;
75171;SDS011;63750;52.418;20.742;2023-02-18T13:15:42;10.30;;;4.90;;
75171;SDS011;63750;52.418;20.742;2023-02-18T13:18:15;11.00;;;5.00;;
75171;SDS011;63750;52.418;20.742;2023-02-18T13:20:48;11.10;;;5.10;;
75171;SDS011;63750;52.418;20.742;2023-02-18T13:23:20;11.30;;;5.00;;
75171;SDS011;63750;52.418;20.742;2023-02-18T13:25:53;11.90;;;5.30;;
75171;SDS011;63750;52.418;20.742;2023-02-18T13:28:27;11.40;;;5.40;;
75171;SDS011;63750;52.418;20.742;2023-02-18T13:31:03;11.20;;;5.00;;
75171;SDS011;63750;52.418;20.742;2023-02-18T13:33:43;10.40;;;5.10;;
75171;SDS011;63750;52.418;20.742;2023-02-18T13:36:20;11.70;;;4.80;;
75171;SDS011;63750;52.418;20.742;2023-02-18T13:39:02;8.30;;;4.90;;
75171;SDS011;63750;52.418;20.742;2023-02-18T13:41:35;9.40;;;5.10;;
75171;SDS011;63750;52.418;20.742;2023-02-18T13:44:15;11.30;;;5.50;;
75171;SDS011;63750;52.418;20.742;2023-02-18T13:47:37;8.70;;;4.70;;
75171;SDS011;63750;52.418;20.742;2023-02-18T13:50:15;8.60;;;4.60;;
75171;SDS011;63750;52.418;20.742;2023-02-18T13:52:51;10.10;;;5.30;;
75171;SDS011;63750;52.418;20.742;2023-02-18T13:55:39;11.80;;;5.50;;
75171;SDS011;63750;52.418;20.742;2023-02-18T13:58:15;10.30;;;5.00;;
75171;SDS011;63750;52.418;20.742;2023-02-18T14:00:47;8.60;;;5.00;;
75171;SDS011;63750;52.418;20.742;2023-02-18T14:03:27;11.80;;;5.50;;
75171;SDS011;63750;52.418;20.742;2023-02-18T14:06:00;10.20;;;4.80;;
75171;SDS011;63750;52.418;20.742;2023-02-18T14:08:39;10.00;;;4.60;;
75171;SDS011;63750;52.418;20.742;2023-02-18T14:17:27;9.70;;;5.30;;
75171;SDS011;63750;52.418;20.742;2023-02-18T14:22:58;10.20;;;5.10;;
75171;SDS011;63750;52.418;20.742;2023-02-18T14:25:37;6.70;;;4.90;;
75171;SDS011;63750;52.418;20.742;2023-02-18T14:31:16;10.80;;;5.00;;
75171;SDS011;63750;52.418;20.742;2023-02-18T14:33:54;10.80;;;5.10;;
75171;SDS011;63750;52.418;20.742;2023-02-18T14:36:41;11.70;;;5.20;;
75171;SDS011;63750;52.418;20.742;2023-02-18T14:39:23;8.60;;;5.10;;
75171;SDS011;63750;52.418;20.742;2023-02-18T14:42:06;13.40;;;5.50;;
75171;SDS011;63750;52.418;20.742;2023-02-18T14:44:46;11.00;;;5.80;;
75171;SDS011;63750;52.418;20.742;2023-02-18T14:47:27;8.00;;;4.90;;
75171;SDS011;63750;52.418;20.742;2023-02-18T14:50:04;9.70;;;5.30;;
75171;SDS011;63750;52.418;20.742;2023-02-18T14:52:42;11.60;;;5.50;;
75171;SDS011;63750;52.418;20.742;2023-02-18T14:55:17;12.50;;;5.20;;
75171;SDS011;63750;52.418;20.742;2023-02-18T14:57:51;9.70;;;4.90;;
75171;SDS011;63750;52.418;20.742;2023-02-18T15:00:26;11.70;;;5.20;;
75171;SDS011;63750;52.418;20.742;2023-02-18T15:02:59;9.20;;;5.00;;
75171;SDS011;63750;52.418;20.742;2023-02-18T15:05:36;9.40;;;4.30;;
75171;SDS011;63750;52.418;20.742;2023-02-18T15:08:09;7.20;;;4.00;;
75171;SDS011;63750;52.418;20.742;2023-02-18T15:10:43;5.90;;;3.60;;
75171;SDS011;63750;52.418;20.742;2023-02-18T15:13:16;5.20;;;4.00;;
75171;SDS011;63750;52.418;20.742;2023-02-18T15:15:48;4.60;;;3.30;;
75171;SDS011;63750;52.418;20.742;2023-02-18T15:18:21;3.70;;;3.10;;